sensor_id;sensor_type;location;lat;lon;timestamp;temperature;humidity
25825;DHT22;13658;44.534;18.694;2023-05-28T00:00:17;14.70;99.90
25825;DHT22;13658;44.534;18.694;2023-05-28T00:02:46;14.70;99.90
25825;DHT22;13658;44.534;18.694;2023-05-28T00:05:12;14.60;99.90
25825;DHT22;13658;44.534;18.694;2023-05-28T00:07:38;14.70;99.90
25825;DHT22;13658;44.534;18.694;2023-05-28T00:10:05;14.70;99.90
25825;DHT22;13658;44.534;18.694;2023-05-28T00:12:31;14.70;99.90
25825;DHT22;13658;44.534;18.694;2023-05-28T00:14:57;14.80;99.90
25825;DHT22;13658;44.534;18.694;2023-05-28T00:17:23;14.70;99.90
25825;DHT22;13658;44.534;18.694;2023-05-28T00:19:49;14.70;99.90
25825;DHT22;13658;44.534;18.694;2023-05-28T00:22:15;14.60;99.90
25825;DHT22;13658;44.534;18.694;2023-05-28T00:24:41;14.60;99.90
25825;DHT22;13658;44.534;18.694;2023-05-28T00:27:07;14.60;99.90
25825;DHT22;13658;44.534;18.694;2023-05-28T00:29:33;14.60;99.90
25825;DHT22;13658;44.534;18.694;2023-05-28T00:31:59;14.60;99.90
25825;DHT22;13658;44.534;18.694;2023-05-28T00:34:25;14.60;99.90
25825;DHT22;13658;44.534;18.694;2023-05-28T00:36:52;14.70;99.90
25825;DHT22;13658;44.534;18.694;2023-05-28T00:39:19;14.70;99.90
25825;DHT22;13658;44.534;18.694;2023-05-28T00:41:46;14.60;99.90
25825;DHT22;13658;44.534;18.694;2023-05-28T00:44:12;14.60;99.90
25825;DHT22;13658;44.534;18.694;2023-05-28T00:46:44;14.60;99.90
25825;DHT22;13658;44.534;18.694;2023-05-28T00:49:10;14.70;99.90
25825;DHT22;13658;44.534;18.694;2023-05-28T00:51:39;14.70;99.90
25825;DHT22;13658;44.534;18.694;2023-05-28T00:54:05;14.70;99.90
25825;DHT22;13658;44.534;18.694;2023-05-28T00:56:31;14.70;99.90
25825;DHT22;13658;44.534;18.694;2023-05-28T00:58:58;14.70;99.90
25825;DHT22;13658;44.534;18.694;2023-05-28T01:01:27;14.70;99.90
25825;DHT22;13658;44.534;18.694;2023-05-28T01:03:55;14.70;99.90
25825;DHT22;13658;44.534;18.694;2023-05-28T01:06:21;14.70;99.90
25825;DHT22;13658;44.534;18.694;2023-05-28T01:08:49;14.70;99.90
25825;DHT22;13658;44.534;18.694;2023-05-28T01:11:18;14.70;99.90
25825;DHT22;13658;44.534;18.694;2023-05-28T01:13:45;14.80;99.90
25825;DHT22;13658;44.534;18.694;2023-05-28T01:16:12;14.80;99.90
25825;DHT22;13658;44.534;18.694;2023-05-28T01:18:39;14.80;99.90
25825;DHT22;13658;44.534;18.694;2023-05-28T01:21:08;14.80;99.90
25825;DHT22;13658;44.534;18.694;2023-05-28T01:23:45;14.70;99.90
25825;DHT22;13658;44.534;18.694;2023-05-28T01:26:14;14.80;99.90
25825;DHT22;13658;44.534;18.694;2023-05-28T01:28:47;14.70;99.90
25825;DHT22;13658;44.534;18.694;2023-05-28T01:31:15;14.70;99.90
25825;DHT22;13658;44.534;18.694;2023-05-28T01:33:42;14.70;99.90
25825;DHT22;13658;44.534;18.694;2023-05-28T01:36:14;14.70;99.90
25825;DHT22;13658;44.534;18.694;2023-05-28T01:38:42;14.60;99.90
25825;DHT22;13658;44.534;18.694;2023-05-28T01:41:11;14.60;99.90
25825;DHT22;13658;44.534;18.694;2023-05-28T01:43:38;14.60;99.90
25825;DHT22;13658;44.534;18.694;2023-05-28T01:46:05;14.60;99.90
25825;DHT22;13658;44.534;18.694;2023-05-28T01:48:32;14.60;99.90
25825;DHT22;13658;44.534;18.694;2023-05-28T01:50:59;14.60;99.90
25825;DHT22;13658;44.534;18.694;2023-05-28T01:53:25;14.60;99.90
25825;DHT22;13658;44.534;18.694;2023-05-28T01:55:51;14.60;99.90
25825;DHT22;13658;44.534;18.694;2023-05-28T01:58:17;14.60;99.90
25825;DHT22;13658;44.534;18.694;2023-05-28T02:03:34;14.60;99.90
25825;DHT22;13658;44.534;18.694;2023-05-28T02:06:00;14.60;99.90
25825;DHT22;13658;44.534;18.694;2023-05-28T02:08:26;14.60;99.90
25825;DHT22;13658;44.534;18.694;2023-05-28T02:10:52;14.60;99.90
25825;DHT22;13658;44.534;18.694;2023-05-28T02:13:18;14.60;99.90
25825;DHT22;13658;44.534;18.694;2023-05-28T02:15:45;14.60;99.90
25825;DHT22;13658;44.534;18.694;2023-05-28T02:18:11;14.60;99.90
25825;DHT22;13658;44.534;18.694;2023-05-28T02:20:38;14.60;99.90
25825;DHT22;13658;44.534;18.694;2023-05-28T02:23:05;14.60;99.90
25825;DHT22;13658;44.534;18.694;2023-05-28T02:25:31;14.60;99.90
25825;DHT22;13658;44.534;18.694;2023-05-28T02:27:58;14.60;99.90
25825;DHT22;13658;44.534;18.694;2023-05-28T02:30:25;14.60;99.90
25825;DHT22;13658;44.534;18.694;2023-05-28T02:32:51;14.60;99.90
25825;DHT22;13658;44.534;18.694;2023-05-28T02:35:17;14.70;99.90
25825;DHT22;13658;44.534;18.694;2023-05-28T02:37:45;14.70;99.90
25825;DHT22;13658;44.534;18.694;2023-05-28T02:40:11;14.70;99.90
25825;DHT22;13658;44.534;18.694;2023-05-28T02:42:38;14.70;99.90
25825;DHT22;13658;44.534;18.694;2023-05-28T02:45:05;14.70;99.90
25825;DHT22;13658;44.534;18.694;2023-05-28T02:47:31;14.70;99.90
25825;DHT22;13658;44.534;18.694;2023-05-28T02:49:58;14.60;99.90
25825;DHT22;13658;44.534;18.694;2023-05-28T02:52:24;14.60;99.90
25825;DHT22;13658;44.534;18.694;2023-05-28T02:54:50;14.60;99.90
25825;DHT22;13658;44.534;18.694;2023-05-28T02:57:16;14.60;99.90
25825;DHT22;13658;44.534;18.694;2023-05-28T02:59:42;14.60;99.90
25825;DHT22;13658;44.534;18.694;2023-05-28T03:02:08;14.60;99.90
25825;DHT22;13658;44.534;18.694;2023-05-28T03:04:35;14.50;99.90
25825;DHT22;13658;44.534;18.694;2023-05-28T03:07:02;14.60;99.90
25825;DHT22;13658;44.534;18.694;2023-05-28T03:09:28;14.50;99.90
25825;DHT22;13658;44.534;18.694;2023-05-28T03:11:54;14.50;99.90
25825;DHT22;13658;44.534;18.694;2023-05-28T03:14:21;14.50;99.90
25825;DHT22;13658;44.534;18.694;2023-05-28T03:16:47;14.50;99.90
25825;DHT22;13658;44.534;18.694;2023-05-28T03:19:24;14.50;99.90
25825;DHT22;13658;44.534;18.694;2023-05-28T03:21:50;14.50;99.90
25825;DHT22;13658;44.534;18.694;2023-05-28T03:24:18;14.50;99.90
25825;DHT22;13658;44.534;18.694;2023-05-28T03:26:49;14.50;99.90
25825;DHT22;13658;44.534;18.694;2023-05-28T03:29:20;14.50;99.90
25825;DHT22;13658;44.534;18.694;2023-05-28T03:31:53;14.50;99.90
25825;DHT22;13658;44.534;18.694;2023-05-28T03:34:21;14.50;99.90
25825;DHT22;13658;44.534;18.694;2023-05-28T03:36:47;14.50;99.90
25825;DHT22;13658;44.534;18.694;2023-05-28T03:39:13;14.50;99.90
25825;DHT22;13658;44.534;18.694;2023-05-28T03:41:39;14.50;99.90
25825;DHT22;13658;44.534;18.694;2023-05-28T03:44:07;14.50;99.90
25825;DHT22;13658;44.534;18.694;2023-05-28T03:46:34;14.50;99.90
25825;DHT22;13658;44.534;18.694;2023-05-28T03:49:00;14.50;99.90
25825;DHT22;13658;44.534;18.694;2023-05-28T03:51:28;14.50;99.90
25825;DHT22;13658;44.534;18.694;2023-05-28T03:53:54;14.60;99.90
25825;DHT22;13658;44.534;18.694;2023-05-28T03:56:20;14.60;99.90
25825;DHT22;13658;44.534;18.694;2023-05-28T03:58:47;14.60;99.90
25825;DHT22;13658;44.534;18.694;2023-05-28T04:01:14;14.60;99.90
25825;DHT22;13658;44.534;18.694;2023-05-28T04:03:41;14.60;99.90
25825;DHT22;13658;44.534;18.694;2023-05-28T04:06:07;14.60;99.90
25825;DHT22;13658;44.534;18.694;2023-05-28T04:08:34;14.60;99.90
25825;DHT22;13658;44.534;18.694;2023-05-28T04:11:00;14.50;99.90
25825;DHT22;13658;44.534;18.694;2023-05-28T04:13:26;14.60;99.90
25825;DHT22;13658;44.534;18.694;2023-05-28T04:15:52;14.60;99.90
25825;DHT22;13658;44.534;18.694;2023-05-28T04:18:18;14.50;99.90
25825;DHT22;13658;44.534;18.694;2023-05-28T04:20:44;14.60;99.90
25825;DHT22;13658;44.534;18.694;2023-05-28T04:23:10;14.60;99.90
25825;DHT22;13658;44.534;18.694;2023-05-28T04:25:36;14.60;99.90
25825;DHT22;13658;44.534;18.694;2023-05-28T04:28:03;14.60;99.90
25825;DHT22;13658;44.534;18.694;2023-05-28T04:30:30;14.60;99.90
25825;DHT22;13658;44.534;18.694;2023-05-28T04:32:57;14.60;99.90
25825;DHT22;13658;44.534;18.694;2023-05-28T04:35:24;14.60;99.90
25825;DHT22;13658;44.534;18.694;2023-05-28T04:37:50;14.70;99.90
25825;DHT22;13658;44.534;18.694;2023-05-28T04:40:18;14.60;99.90
25825;DHT22;13658;44.534;18.694;2023-05-28T04:42:44;14.60;99.90
25825;DHT22;13658;44.534;18.694;2023-05-28T04:45:10;14.60;99.90
25825;DHT22;13658;44.534;18.694;2023-05-28T04:47:39;14.60;99.90
25825;DHT22;13658;44.534;18.694;2023-05-28T04:50:06;14.60;99.90
25825;DHT22;13658;44.534;18.694;2023-05-28T04:52:33;14.60;99.90
25825;DHT22;13658;44.534;18.694;2023-05-28T04:55:04;14.70;99.90
25825;DHT22;13658;44.534;18.694;2023-05-28T04:57:31;14.80;99.90
25825;DHT22;13658;44.534;18.694;2023-05-28T04:59:58;14.80;99.90
25825;DHT22;13658;44.534;18.694;2023-05-28T05:02:24;14.90;99.90
25825;DHT22;13658;44.534;18.694;2023-05-28T05:04:50;15.00;99.90
25825;DHT22;13658;44.534;18.694;2023-05-28T05:07:18;15.00;99.90
25825;DHT22;13658;44.534;18.694;2023-05-28T05:09:46;15.00;99.90
25825;DHT22;13658;44.534;18.694;2023-05-28T05:12:12;15.00;99.90
25825;DHT22;13658;44.534;18.694;2023-05-28T05:14:39;15.00;99.90
25825;DHT22;13658;44.534;18.694;2023-05-28T05:17:06;15.10;99.90
25825;DHT22;13658;44.534;18.694;2023-05-28T05:19:34;15.10;99.90
25825;DHT22;13658;44.534;18.694;2023-05-28T05:22:01;15.10;99.90
25825;DHT22;13658;44.534;18.694;2023-05-28T05:24:28;15.10;99.90
25825;DHT22;13658;44.534;18.694;2023-05-28T05:26:55;15.20;99.90
25825;DHT22;13658;44.534;18.694;2023-05-28T05:29:21;15.20;99.90
25825;DHT22;13658;44.534;18.694;2023-05-28T05:31:49;15.20;99.90
25825;DHT22;13658;44.534;18.694;2023-05-28T05:34:15;15.30;99.90
25825;DHT22;13658;44.534;18.694;2023-05-28T05:36:59;15.40;99.90
25825;DHT22;13658;44.534;18.694;2023-05-28T05:39:25;15.40;99.90
25825;DHT22;13658;44.534;18.694;2023-05-28T05:42:22;15.50;99.90
25825;DHT22;13658;44.534;18.694;2023-05-28T05:44:52;15.50;99.90
25825;DHT22;13658;44.534;18.694;2023-05-28T05:47:20;15.50;99.90
25825;DHT22;13658;44.534;18.694;2023-05-28T05:49:47;15.60;99.90
25825;DHT22;13658;44.534;18.694;2023-05-28T05:52:13;15.50;99.90
25825;DHT22;13658;44.534;18.694;2023-05-28T05:54:41;15.40;99.90
25825;DHT22;13658;44.534;18.694;2023-05-28T05:57:06;15.50;99.90
25825;DHT22;13658;44.534;18.694;2023-05-28T05:59:33;15.50;99.90
25825;DHT22;13658;44.534;18.694;2023-05-28T06:01:59;15.60;99.90
25825;DHT22;13658;44.534;18.694;2023-05-28T06:04:26;15.70;99.90
25825;DHT22;13658;44.534;18.694;2023-05-28T06:07:23;15.80;99.90
25825;DHT22;13658;44.534;18.694;2023-05-28T06:10:09;15.80;99.90
25825;DHT22;13658;44.534;18.694;2023-05-28T06:12:37;15.90;99.90
25825;DHT22;13658;44.534;18.694;2023-05-28T06:15:03;16.00;99.90
25825;DHT22;13658;44.534;18.694;2023-05-28T06:17:30;16.00;99.90
25825;DHT22;13658;44.534;18.694;2023-05-28T06:19:59;16.10;99.90
25825;DHT22;13658;44.534;18.694;2023-05-28T06:22:29;16.10;99.90
25825;DHT22;13658;44.534;18.694;2023-05-28T06:24:55;16.10;99.90
25825;DHT22;13658;44.534;18.694;2023-05-28T06:27:22;16.20;99.90
25825;DHT22;13658;44.534;18.694;2023-05-28T06:29:48;16.20;99.90
25825;DHT22;13658;44.534;18.694;2023-05-28T06:32:14;16.20;99.90
25825;DHT22;13658;44.534;18.694;2023-05-28T06:34:42;16.20;99.90
25825;DHT22;13658;44.534;18.694;2023-05-28T06:37:09;16.30;99.90
25825;DHT22;13658;44.534;18.694;2023-05-28T06:39:35;16.30;99.90
25825;DHT22;13658;44.534;18.694;2023-05-28T06:42:03;16.30;99.90
25825;DHT22;13658;44.534;18.694;2023-05-28T06:44:46;16.40;99.90
25825;DHT22;13658;44.534;18.694;2023-05-28T06:47:15;16.50;99.90
25825;DHT22;13658;44.534;18.694;2023-05-28T06:49:41;16.60;99.90
25825;DHT22;13658;44.534;18.694;2023-05-28T06:52:08;16.60;99.90
25825;DHT22;13658;44.534;18.694;2023-05-28T06:54:34;16.60;99.90
25825;DHT22;13658;44.534;18.694;2023-05-28T06:57:01;16.50;99.90
25825;DHT22;13658;44.534;18.694;2023-05-28T06:59:30;16.60;99.90
25825;DHT22;13658;44.534;18.694;2023-05-28T07:02:18;16.70;99.90
25825;DHT22;13658;44.534;18.694;2023-05-28T07:04:58;16.60;99.90
25825;DHT22;13658;44.534;18.694;2023-05-28T07:07:28;16.60;99.90
25825;DHT22;13658;44.534;18.694;2023-05-28T07:09:54;16.60;99.90
25825;DHT22;13658;44.534;18.694;2023-05-28T07:12:20;16.70;99.90
25825;DHT22;13658;44.534;18.694;2023-05-28T07:14:50;16.70;99.90
25825;DHT22;13658;44.534;18.694;2023-05-28T07:17:16;16.70;99.90
25825;DHT22;13658;44.534;18.694;2023-05-28T07:19:45;16.70;99.90
25825;DHT22;13658;44.534;18.694;2023-05-28T07:22:13;16.80;99.90
25825;DHT22;13658;44.534;18.694;2023-05-28T07:24:40;16.70;99.90
25825;DHT22;13658;44.534;18.694;2023-05-28T07:27:06;16.70;99.90
25825;DHT22;13658;44.534;18.694;2023-05-28T07:29:32;16.60;99.90
25825;DHT22;13658;44.534;18.694;2023-05-28T07:31:59;16.70;99.90
25825;DHT22;13658;44.534;18.694;2023-05-28T07:34:27;16.70;99.90
25825;DHT22;13658;44.534;18.694;2023-05-28T07:36:53;16.80;99.90
25825;DHT22;13658;44.534;18.694;2023-05-28T07:39:20;16.80;99.90
25825;DHT22;13658;44.534;18.694;2023-05-28T07:41:48;16.90;99.90
25825;DHT22;13658;44.534;18.694;2023-05-28T07:44:27;16.90;99.90
25825;DHT22;13658;44.534;18.694;2023-05-28T07:46:53;17.00;99.90
25825;DHT22;13658;44.534;18.694;2023-05-28T07:49:38;17.20;99.90
25825;DHT22;13658;44.534;18.694;2023-05-28T07:52:04;17.00;99.90
25825;DHT22;13658;44.534;18.694;2023-05-28T07:54:31;17.00;99.90
25825;DHT22;13658;44.534;18.694;2023-05-28T07:56:58;17.10;99.90
25825;DHT22;13658;44.534;18.694;2023-05-28T07:59:32;17.20;99.90
25825;DHT22;13658;44.534;18.694;2023-05-28T08:02:00;17.40;99.90
25825;DHT22;13658;44.534;18.694;2023-05-28T08:04:26;17.60;99.90
25825;DHT22;13658;44.534;18.694;2023-05-28T08:06:52;17.70;99.90
25825;DHT22;13658;44.534;18.694;2023-05-28T08:09:18;17.80;99.90
25825;DHT22;13658;44.534;18.694;2023-05-28T08:11:49;17.80;99.90
25825;DHT22;13658;44.534;18.694;2023-05-28T08:14:18;18.00;99.90
25825;DHT22;13658;44.534;18.694;2023-05-28T08:16:46;17.90;99.90
25825;DHT22;13658;44.534;18.694;2023-05-28T08:19:23;18.00;99.90
25825;DHT22;13658;44.534;18.694;2023-05-28T08:21:52;18.00;99.90
25825;DHT22;13658;44.534;18.694;2023-05-28T08:24:19;17.90;99.90
25825;DHT22;13658;44.534;18.694;2023-05-28T08:26:46;18.00;99.90
25825;DHT22;13658;44.534;18.694;2023-05-28T08:29:13;18.10;99.90
25825;DHT22;13658;44.534;18.694;2023-05-28T08:31:44;18.10;99.90
25825;DHT22;13658;44.534;18.694;2023-05-28T08:34:25;18.10;99.90
25825;DHT22;13658;44.534;18.694;2023-05-28T08:36:52;18.30;99.90
25825;DHT22;13658;44.534;18.694;2023-05-28T08:39:25;18.30;99.90
25825;DHT22;13658;44.534;18.694;2023-05-28T08:41:53;18.40;99.90
25825;DHT22;13658;44.534;18.694;2023-05-28T08:44:20;18.40;99.90
25825;DHT22;13658;44.534;18.694;2023-05-28T08:46:47;18.30;99.90
25825;DHT22;13658;44.534;18.694;2023-05-28T08:49:32;18.30;99.90
25825;DHT22;13658;44.534;18.694;2023-05-28T08:52:05;18.30;99.90
25825;DHT22;13658;44.534;18.694;2023-05-28T08:54:33;18.30;99.90
25825;DHT22;13658;44.534;18.694;2023-05-28T08:57:00;18.20;99.90
25825;DHT22;13658;44.534;18.694;2023-05-28T08:59:30;18.20;99.90
25825;DHT22;13658;44.534;18.694;2023-05-28T09:01:57;18.10;99.90
25825;DHT22;13658;44.534;18.694;2023-05-28T09:04:23;18.10;99.90
25825;DHT22;13658;44.534;18.694;2023-05-28T09:06:49;18.10;99.90
25825;DHT22;13658;44.534;18.694;2023-05-28T09:09:37;18.30;99.90
25825;DHT22;13658;44.534;18.694;2023-05-28T09:12:10;18.80;99.90
25825;DHT22;13658;44.534;18.694;2023-05-28T09:14:40;19.40;99.90
25825;DHT22;13658;44.534;18.694;2023-05-28T09:17:07;19.90;99.90
25825;DHT22;13658;44.534;18.694;2023-05-28T09:19:35;20.70;99.90
25825;DHT22;13658;44.534;18.694;2023-05-28T09:22:01;21.70;99.90
25825;DHT22;13658;44.534;18.694;2023-05-28T09:24:49;22.40;99.90
25825;DHT22;13658;44.534;18.694;2023-05-28T09:27:26;22.80;99.90
25825;DHT22;13658;44.534;18.694;2023-05-28T09:29:53;23.50;99.90
25825;DHT22;13658;44.534;18.694;2023-05-28T09:32:19;24.50;99.90
25825;DHT22;13658;44.534;18.694;2023-05-28T09:34:51;25.40;99.90
25825;DHT22;13658;44.534;18.694;2023-05-28T09:37:17;26.10;99.90
25825;DHT22;13658;44.534;18.694;2023-05-28T09:39:43;25.40;99.90
25825;DHT22;13658;44.534;18.694;2023-05-28T09:42:10;25.10;99.90
25825;DHT22;13658;44.534;18.694;2023-05-28T09:44:38;25.10;99.90
25825;DHT22;13658;44.534;18.694;2023-05-28T09:47:18;25.20;99.90
25825;DHT22;13658;44.534;18.694;2023-05-28T09:49:45;25.30;99.90
25825;DHT22;13658;44.534;18.694;2023-05-28T09:52:19;25.20;99.90
25825;DHT22;13658;44.534;18.694;2023-05-28T09:54:53;25.60;99.90
25825;DHT22;13658;44.534;18.694;2023-05-28T09:57:29;25.90;99.90
25825;DHT22;13658;44.534;18.694;2023-05-28T09:59:56;26.40;99.90
25825;DHT22;13658;44.534;18.694;2023-05-28T10:02:45;26.30;99.90
25825;DHT22;13658;44.534;18.694;2023-05-28T10:05:14;25.70;99.90
25825;DHT22;13658;44.534;18.694;2023-05-28T10:07:43;25.20;99.90
25825;DHT22;13658;44.534;18.694;2023-05-28T10:10:13;25.70;99.90
25825;DHT22;13658;44.534;18.694;2023-05-28T10:12:39;26.00;99.90
25825;DHT22;13658;44.534;18.694;2023-05-28T10:15:07;26.10;99.90
25825;DHT22;13658;44.534;18.694;2023-05-28T10:17:34;26.10;99.90
25825;DHT22;13658;44.534;18.694;2023-05-28T10:20:00;25.70;99.90
25825;DHT22;13658;44.534;18.694;2023-05-28T10:22:27;26.30;99.90
25825;DHT22;13658;44.534;18.694;2023-05-28T10:24:53;26.30;99.90
25825;DHT22;13658;44.534;18.694;2023-05-28T10:27:20;26.90;99.90
25825;DHT22;13658;44.534;18.694;2023-05-28T10:29:54;27.40;99.90
25825;DHT22;13658;44.534;18.694;2023-05-28T10:32:20;28.10;99.90
25825;DHT22;13658;44.534;18.694;2023-05-28T10:34:46;28.10;99.90
25825;DHT22;13658;44.534;18.694;2023-05-28T10:37:12;27.90;99.90
25825;DHT22;13658;44.534;18.694;2023-05-28T10:39:43;27.20;99.90
25825;DHT22;13658;44.534;18.694;2023-05-28T10:42:16;26.70;99.90
25825;DHT22;13658;44.534;18.694;2023-05-28T10:47:35;26.50;99.90
25825;DHT22;13658;44.534;18.694;2023-05-28T10:50:15;26.50;99.90
25825;DHT22;13658;44.534;18.694;2023-05-28T10:52:41;26.00;99.90
25825;DHT22;13658;44.534;18.694;2023-05-28T10:55:09;24.90;99.90
25825;DHT22;13658;44.534;18.694;2023-05-28T10:57:41;24.70;99.90
25825;DHT22;13658;44.534;18.694;2023-05-28T11:00:08;24.50;99.90
25825;DHT22;13658;44.534;18.694;2023-05-28T11:02:40;24.20;99.90
25825;DHT22;13658;44.534;18.694;2023-05-28T11:05:08;24.30;99.90
25825;DHT22;13658;44.534;18.694;2023-05-28T11:07:42;24.10;99.90
25825;DHT22;13658;44.534;18.694;2023-05-28T11:10:10;24.30;99.90
25825;DHT22;13658;44.534;18.694;2023-05-28T11:12:38;23.70;99.90
25825;DHT22;13658;44.534;18.694;2023-05-28T11:15:06;23.80;99.90
25825;DHT22;13658;44.534;18.694;2023-05-28T11:17:36;24.20;99.90
25825;DHT22;13658;44.534;18.694;2023-05-28T11:20:03;24.30;99.90
25825;DHT22;13658;44.534;18.694;2023-05-28T11:22:34;24.10;99.90
25825;DHT22;13658;44.534;18.694;2023-05-28T11:25:07;24.00;99.90
25825;DHT22;13658;44.534;18.694;2023-05-28T11:27:34;23.60;99.90
25825;DHT22;13658;44.534;18.694;2023-05-28T11:32:37;23.60;99.90
25825;DHT22;13658;44.534;18.694;2023-05-28T11:35:04;23.40;99.90
25825;DHT22;13658;44.534;18.694;2023-05-28T11:37:32;23.60;99.90
25825;DHT22;13658;44.534;18.694;2023-05-28T11:39:59;24.00;99.90
25825;DHT22;13658;44.534;18.694;2023-05-28T11:42:29;24.20;99.90
25825;DHT22;13658;44.534;18.694;2023-05-28T11:44:55;24.20;99.90
25825;DHT22;13658;44.534;18.694;2023-05-28T11:47:22;23.90;99.90
25825;DHT22;13658;44.534;18.694;2023-05-28T11:49:49;23.70;99.90
25825;DHT22;13658;44.534;18.694;2023-05-28T11:52:23;23.70;99.90
25825;DHT22;13658;44.534;18.694;2023-05-28T11:54:57;24.00;99.90
25825;DHT22;13658;44.534;18.694;2023-05-28T11:57:25;24.10;99.90
25825;DHT22;13658;44.534;18.694;2023-05-28T12:00:11;24.30;99.90
25825;DHT22;13658;44.534;18.694;2023-05-28T12:02:51;24.20;99.90
25825;DHT22;13658;44.534;18.694;2023-05-28T12:05:18;24.50;99.90
25825;DHT22;13658;44.534;18.694;2023-05-28T12:07:46;24.30;99.90
25825;DHT22;13658;44.534;18.694;2023-05-28T12:10:13;24.50;99.90
25825;DHT22;13658;44.534;18.694;2023-05-28T12:12:44;24.50;99.90
25825;DHT22;13658;44.534;18.694;2023-05-28T12:15:11;24.40;99.90
25825;DHT22;13658;44.534;18.694;2023-05-28T12:17:39;24.40;99.90
25825;DHT22;13658;44.534;18.694;2023-05-28T12:22:41;24.70;99.90
25825;DHT22;13658;44.534;18.694;2023-05-28T12:25:08;24.70;99.90
25825;DHT22;13658;44.534;18.694;2023-05-28T12:27:36;24.70;99.90
25825;DHT22;13658;44.534;18.694;2023-05-28T12:30:06;24.60;99.90
25825;DHT22;13658;44.534;18.694;2023-05-28T12:32:34;24.40;99.90
25825;DHT22;13658;44.534;18.694;2023-05-28T12:35:00;24.30;99.90
25825;DHT22;13658;44.534;18.694;2023-05-28T12:37:26;24.40;99.90
25825;DHT22;13658;44.534;18.694;2023-05-28T12:39:53;24.40;99.90
25825;DHT22;13658;44.534;18.694;2023-05-28T12:42:25;24.50;99.90
25825;DHT22;13658;44.534;18.694;2023-05-28T12:44:54;24.30;99.90
25825;DHT22;13658;44.534;18.694;2023-05-28T12:47:20;24.20;99.90
25825;DHT22;13658;44.534;18.694;2023-05-28T12:49:46;24.30;99.90
25825;DHT22;13658;44.534;18.694;2023-05-28T12:52:13;24.30;99.90
25825;DHT22;13658;44.534;18.694;2023-05-28T12:54:40;24.50;99.90
25825;DHT22;13658;44.534;18.694;2023-05-28T12:57:07;24.40;99.90
25825;DHT22;13658;44.534;18.694;2023-05-28T12:59:33;24.30;99.90
25825;DHT22;13658;44.534;18.694;2023-05-28T13:01:59;24.30;99.90
25825;DHT22;13658;44.534;18.694;2023-05-28T13:04:24;24.20;99.90
25825;DHT22;13658;44.534;18.694;2023-05-28T13:06:50;24.10;99.90
25825;DHT22;13658;44.534;18.694;2023-05-28T13:09:17;23.90;99.90
25825;DHT22;13658;44.534;18.694;2023-05-28T13:11:43;23.60;99.90
25825;DHT22;13658;44.534;18.694;2023-05-28T13:14:10;23.40;99.90
25825;DHT22;13658;44.534;18.694;2023-05-28T13:16:37;23.30;99.90
25825;DHT22;13658;44.534;18.694;2023-05-28T13:19:06;22.90;99.90
25825;DHT22;13658;44.534;18.694;2023-05-28T13:21:32;22.90;99.90
25825;DHT22;13658;44.534;18.694;2023-05-28T13:24:05;22.70;99.90
25825;DHT22;13658;44.534;18.694;2023-05-28T13:26:33;22.60;99.90
25825;DHT22;13658;44.534;18.694;2023-05-28T13:29:01;22.60;99.90
25825;DHT22;13658;44.534;18.694;2023-05-28T13:31:27;22.60;99.90
25825;DHT22;13658;44.534;18.694;2023-05-28T13:33:53;22.60;99.90
25825;DHT22;13658;44.534;18.694;2023-05-28T13:36:19;22.40;99.90
25825;DHT22;13658;44.534;18.694;2023-05-28T13:38:45;22.30;99.90
25825;DHT22;13658;44.534;18.694;2023-05-28T13:41:14;22.20;99.90
25825;DHT22;13658;44.534;18.694;2023-05-28T13:43:41;22.20;99.90
25825;DHT22;13658;44.534;18.694;2023-05-28T13:46:07;22.30;99.90
25825;DHT22;13658;44.534;18.694;2023-05-28T13:48:34;22.30;99.90
25825;DHT22;13658;44.534;18.694;2023-05-28T13:51:00;22.20;99.90
25825;DHT22;13658;44.534;18.694;2023-05-28T13:53:27;22.10;99.90
25825;DHT22;13658;44.534;18.694;2023-05-28T13:55:54;22.10;99.90
25825;DHT22;13658;44.534;18.694;2023-05-28T13:58:21;22.00;99.90
25825;DHT22;13658;44.534;18.694;2023-05-28T14:00:47;22.00;99.90
25825;DHT22;13658;44.534;18.694;2023-05-28T14:03:13;21.70;99.90
25825;DHT22;13658;44.534;18.694;2023-05-28T14:05:40;21.50;99.90
25825;DHT22;13658;44.534;18.694;2023-05-28T14:08:06;21.40;99.90
25825;DHT22;13658;44.534;18.694;2023-05-28T14:10:33;21.30;99.90
25825;DHT22;13658;44.534;18.694;2023-05-28T14:12:59;21.20;99.90
25825;DHT22;13658;44.534;18.694;2023-05-28T14:15:25;20.50;99.90
25825;DHT22;13658;44.534;18.694;2023-05-28T14:17:54;19.60;99.90
25825;DHT22;13658;44.534;18.694;2023-05-28T14:20:19;19.30;99.90
25825;DHT22;13658;44.534;18.694;2023-05-28T14:22:45;19.10;99.90
25825;DHT22;13658;44.534;18.694;2023-05-28T14:25:11;19.00;99.90
25825;DHT22;13658;44.534;18.694;2023-05-28T14:27:38;19.00;99.90
25825;DHT22;13658;44.534;18.694;2023-05-28T14:30:04;18.90;99.90
25825;DHT22;13658;44.534;18.694;2023-05-28T14:32:31;18.90;99.90
25825;DHT22;13658;44.534;18.694;2023-05-28T14:34:59;18.90;99.90
25825;DHT22;13658;44.534;18.694;2023-05-28T14:37:26;18.90;99.90
25825;DHT22;13658;44.534;18.694;2023-05-28T14:39:52;18.90;99.90
25825;DHT22;13658;44.534;18.694;2023-05-28T14:42:18;18.90;99.90
25825;DHT22;13658;44.534;18.694;2023-05-28T14:44:44;18.90;99.90
25825;DHT22;13658;44.534;18.694;2023-05-28T14:47:10;19.00;99.90
25825;DHT22;13658;44.534;18.694;2023-05-28T14:49:36;19.10;99.90
25825;DHT22;13658;44.534;18.694;2023-05-28T14:52:22;19.30;99.90
25825;DHT22;13658;44.534;18.694;2023-05-28T14:54:49;19.40;99.90
25825;DHT22;13658;44.534;18.694;2023-05-28T14:57:15;19.40;99.90
25825;DHT22;13658;44.534;18.694;2023-05-28T14:59:44;19.40;99.90
25825;DHT22;13658;44.534;18.694;2023-05-28T15:02:10;19.50;99.90
25825;DHT22;13658;44.534;18.694;2023-05-28T15:04:36;19.50;99.90
25825;DHT22;13658;44.534;18.694;2023-05-28T15:07:02;19.50;99.90
25825;DHT22;13658;44.534;18.694;2023-05-28T15:09:28;19.50;99.90
25825;DHT22;13658;44.534;18.694;2023-05-28T15:11:54;19.50;99.90
25825;DHT22;13658;44.534;18.694;2023-05-28T15:14:20;19.40;99.90
25825;DHT22;13658;44.534;18.694;2023-05-28T15:16:46;19.30;99.90
25825;DHT22;13658;44.534;18.694;2023-05-28T15:19:12;19.30;99.90
25825;DHT22;13658;44.534;18.694;2023-05-28T15:21:38;19.20;99.90
25825;DHT22;13658;44.534;18.694;2023-05-28T15:24:04;19.10;99.90
25825;DHT22;13658;44.534;18.694;2023-05-28T15:26:31;19.10;99.90
25825;DHT22;13658;44.534;18.694;2023-05-28T15:28:57;19.10;99.90
25825;DHT22;13658;44.534;18.694;2023-05-28T15:31:23;19.00;99.90